createdAt,value
2019-06-07T00:00:57.582Z,15.81
2019-06-07T00:03:09.255Z,15.76
2019-06-07T00:05:13.245Z,15.75
2019-06-07T00:07:21.444Z,15.73
2019-06-07T00:09:22.966Z,15.72
2019-06-07T00:11:28.934Z,15.74
2019-06-07T00:13:32.683Z,15.73
2019-06-07T00:15:36.595Z,15.72
2019-06-07T00:17:40.752Z,15.69
2019-06-07T00:19:44.581Z,15.68
2019-06-07T00:23:54.029Z,15.71
2019-06-07T00:25:57.965Z,15.72
2019-06-07T00:28:01.875Z,15.75
2019-06-07T00:30:32.526Z,15.74
2019-06-07T00:32:14.992Z,15.76
2019-06-07T00:34:20.049Z,15.77
2019-06-07T00:36:23.873Z,15.76
2019-06-07T00:38:27.724Z,15.75
2019-06-07T00:40:32.321Z,15.73
2019-06-07T00:42:36.515Z,15.71
2019-06-07T00:44:40.295Z,15.69
2019-06-07T00:46:44.168Z,15.69
2019-06-07T00:48:48.274Z,15.69
2019-06-07T00:50:52.166Z,15.67
2019-06-07T00:53:14.858Z,15.62
2019-06-07T00:55:02.178Z,15.59
2019-06-07T00:57:05.957Z,15.55
2019-06-07T00:59:14.546Z,15.54
2019-06-07T01:01:19.099Z,15.55
2019-06-07T01:03:25.563Z,15.57
2019-06-07T01:05:31.449Z,15.55
2019-06-07T01:07:33.672Z,15.54
2019-06-07T01:09:37.622Z,15.51
2019-06-07T01:11:41.458Z,15.49
2019-06-07T01:13:45.355Z,15.48
2019-06-07T01:15:49.738Z,15.43
2019-06-07T01:18:33.130Z,15.41
2019-06-07T01:19:59.431Z,15.41
2019-06-07T01:22:03.262Z,15.42
2019-06-07T01:24:12.270Z,15.44
2019-06-07T01:26:12.901Z,15.46
2019-06-07T01:28:20.611Z,15.47
2019-06-07T01:30:26.677Z,15.47
2019-06-07T01:32:31.844Z,15.51
2019-06-07T01:34:35.868Z,15.49
2019-06-07T01:36:39.849Z,15.49
2019-06-07T01:38:43.728Z,15.50
2019-06-07T01:40:48.951Z,15.51
2019-06-07T01:42:52.763Z,15.51
2019-06-07T01:44:56.604Z,15.50
2019-06-07T01:47:00.599Z,15.49
2019-06-07T01:49:04.553Z,15.48
2019-06-07T01:51:08.331Z,15.48
2019-06-07T01:53:12.257Z,15.49
2019-06-07T01:55:18.801Z,15.49
2019-06-07T01:57:40.730Z,15.51
2019-06-07T01:59:31.365Z,15.48
2019-06-07T02:01:35.557Z,15.48
2019-06-07T02:03:39.539Z,15.49
2019-06-07T02:05:43.464Z,15.49
2019-06-07T02:07:47.404Z,15.48
2019-06-07T02:09:51.269Z,15.46
2019-06-07T02:11:55.176Z,15.45
2019-06-07T02:13:59.083Z,15.44
2019-06-07T02:16:03.211Z,15.44
2019-06-07T02:18:07.214Z,15.45
2019-06-07T02:20:11.344Z,15.44
2019-06-07T02:22:15.063Z,15.46
2019-06-07T02:24:21.300Z,15.45
2019-06-07T02:26:25.426Z,15.45
2019-06-07T02:28:44.369Z,15.43
2019-06-07T02:30:44.634Z,15.40
2019-06-07T02:32:41.180Z,15.37
2019-06-07T02:34:45.087Z,15.37
2019-06-07T02:36:48.972Z,15.35
2019-06-07T02:38:52.885Z,15.32
2019-06-07T02:40:56.835Z,15.28
2019-06-07T02:43:00.684Z,15.29
2019-06-07T02:45:05.642Z,15.28
2019-06-07T02:47:09.504Z,15.29
2019-06-07T02:49:19.333Z,15.31
2019-06-07T02:51:26.519Z,15.28
2019-06-07T02:53:30.796Z,15.28
2019-06-07T02:56:10.705Z,15.27
2019-06-07T02:57:42.120Z,15.28
2019-06-07T03:00:06.507Z,15.28
2019-06-07T03:01:54.323Z,15.26
2019-06-07T03:03:58.524Z,15.25
2019-06-07T03:06:03.294Z,15.25
2019-06-07T03:08:10.129Z,15.24
2019-06-07T03:10:14.894Z,15.24
2019-06-07T03:12:22.174Z,15.25
2019-06-07T03:14:28.601Z,15.25
2019-06-07T03:16:39.427Z,15.25
2019-06-07T03:19:05.889Z,15.23
2019-06-07T03:21:13.723Z,15.21
2019-06-07T03:23:18.364Z,15.20
2019-06-07T03:25:22.316Z,15.21
2019-06-07T03:27:36.117Z,15.22
2019-06-07T03:29:33.817Z,15.22
2019-06-07T03:31:43.377Z,15.20
2019-06-07T03:33:45.487Z,15.21
2019-06-07T03:35:48.321Z,15.22
2019-06-07T03:37:52.216Z,15.25
2019-06-07T03:39:56.132Z,15.26
2019-06-07T03:42:06.383Z,15.26
2019-06-07T03:44:05.994Z,15.28
2019-06-07T03:46:09.984Z,15.29
2019-06-07T03:48:13.828Z,15.30
2019-06-07T03:50:17.733Z,15.32
2019-06-07T03:52:22.639Z,15.34
2019-06-07T03:54:27.250Z,15.37
2019-06-07T03:56:31.882Z,15.38
2019-06-07T03:58:47.842Z,15.38
2019-06-07T04:00:43.402Z,15.38
2019-06-07T04:02:50.638Z,15.37
2019-06-07T04:04:54.439Z,15.36
2019-06-07T04:06:58.379Z,15.37
2019-06-07T04:09:02.355Z,15.37
2019-06-07T04:11:06.251Z,15.37
2019-06-07T04:13:10.139Z,15.36
2019-06-07T04:15:14.636Z,15.36
2019-06-07T04:17:18.534Z,15.36
2019-06-07T04:19:22.395Z,15.37
2019-06-07T04:21:26.319Z,15.38
2019-06-07T04:23:33.124Z,15.36
2019-06-07T04:25:39.511Z,15.38
2019-06-07T04:27:41.508Z,15.37
2019-06-07T04:30:05.664Z,15.38
2019-06-07T04:31:51.019Z,15.38
2019-06-07T04:33:54.942Z,15.39
2019-06-07T04:35:59.891Z,15.39
2019-06-07T04:38:03.764Z,15.41
2019-06-07T04:40:07.793Z,15.42
2019-06-07T04:42:13.190Z,15.43
2019-06-07T04:44:19.300Z,15.44
2019-06-07T04:46:24.416Z,15.45
2019-06-07T04:48:32.769Z,15.46
2019-06-07T04:50:40.325Z,15.50
2019-06-07T04:52:45.631Z,15.50
2019-06-07T04:54:48.480Z,15.50
2019-06-07T04:56:52.412Z,15.48
2019-06-07T04:58:56.636Z,15.50
2019-06-07T05:01:03.543Z,15.50
2019-06-07T05:03:06.974Z,15.51
2019-06-07T05:05:11.282Z,15.52
2019-06-07T05:07:15.204Z,15.52
2019-06-07T05:09:19.055Z,15.52
2019-06-07T05:11:22.940Z,15.54
2019-06-07T05:13:26.938Z,15.54
2019-06-07T05:15:32.054Z,15.57
2019-06-07T05:17:37.044Z,15.60
2019-06-07T05:19:44.578Z,15.64
2019-06-07T05:22:02.675Z,15.66
2019-06-07T05:24:06.612Z,15.67
2019-06-07T05:25:58.707Z,15.71
2019-06-07T05:28:02.624Z,15.73
2019-06-07T05:30:13.728Z,15.76
2019-06-07T05:32:15.388Z,15.77
2019-06-07T05:34:19.264Z,15.82
2019-06-07T05:36:23.223Z,15.83
2019-06-07T05:38:27.042Z,15.89
2019-06-07T05:40:38.733Z,15.96
2019-06-07T05:42:46.610Z,16.03
2019-06-07T05:44:49.075Z,16.09
2019-06-07T05:46:52.914Z,16.15
2019-06-07T05:48:56.795Z,16.22
2019-06-07T05:51:00.703Z,16.25
2019-06-07T05:53:05.590Z,16.31
2019-06-07T05:55:10.334Z,16.35
2019-06-07T05:57:14.221Z,16.40
2019-06-07T05:59:18.216Z,16.45
2019-06-07T06:01:45.004Z,16.54
2019-06-07T06:03:27.653Z,16.60
2019-06-07T06:05:36.334Z,16.62
2019-06-07T06:07:39.516Z,16.69
2019-06-07T06:09:43.823Z,16.74
2019-06-07T06:11:59.031Z,16.76
2019-06-07T06:14:06.526Z,16.77
2019-06-07T06:16:02.035Z,16.78
2019-06-07T06:18:05.442Z,16.82
2019-06-07T06:20:10.193Z,16.85
2019-06-07T06:22:13.991Z,16.87
2019-06-07T06:24:17.925Z,16.85
2019-06-07T06:26:21.860Z,16.87
2019-06-07T06:28:25.713Z,16.90
2019-06-07T06:30:29.682Z,17.00
2019-06-07T06:32:47.207Z,17.11
2019-06-07T06:34:42.954Z,17.21
2019-06-07T06:36:47.800Z,17.33
2019-06-07T06:38:51.549Z,17.48
2019-06-07T06:41:14.606Z,17.67
2019-06-07T06:43:01.295Z,17.78
2019-06-07T06:45:06.970Z,17.82
2019-06-07T06:47:10.882Z,17.83
2019-06-07T06:49:14.859Z,17.84
2019-06-07T06:51:18.711Z,17.81
2019-06-07T06:53:22.665Z,17.75
2019-06-07T06:55:29.187Z,17.70
2019-06-07T06:57:33.065Z,17.69
2019-06-07T06:59:40.842Z,17.68
2019-06-07T07:01:42.666Z,17.74
2019-06-07T07:04:09.631Z,17.82
2019-06-07T07:05:54.924Z,18.00
2019-06-07T07:07:59.219Z,18.12
2019-06-07T07:10:04.103Z,18.15
2019-06-07T07:12:12.751Z,18.20
2019-06-07T07:14:13.959Z,18.23
2019-06-07T07:16:17.833Z,18.26
2019-06-07T07:18:21.759Z,18.32
2019-06-07T07:20:25.782Z,18.38
2019-06-07T07:22:29.922Z,18.43
2019-06-07T07:24:33.861Z,18.48
2019-06-07T07:26:37.874Z,18.52
2019-06-07T07:28:43.019Z,18.57
2019-06-07T07:30:52.715Z,18.64
2019-06-07T07:32:59.279Z,18.73
2019-06-07T07:35:00.759Z,18.77
2019-06-07T07:37:05.844Z,18.78
2019-06-07T07:39:09.857Z,18.80
2019-06-07T07:41:15.451Z,18.79
2019-06-07T07:43:19.307Z,18.80
2019-06-07T07:45:23.167Z,18.88
2019-06-07T07:47:27.054Z,19.05
2019-06-07T07:49:31.010Z,19.21
2019-06-07T07:51:34.888Z,19.27
2019-06-07T07:53:50.619Z,19.31
2019-06-07T07:55:45.080Z,19.39
2019-06-07T07:57:58.138Z,19.42
2019-06-07T08:00:17.759Z,19.49
2019-06-07T08:02:01.375Z,19.55
2019-06-07T08:04:05.454Z,19.49
2019-06-07T08:06:09.430Z,19.64
2019-06-07T08:08:13.264Z,20.02
2019-06-07T08:10:19.022Z,20.51
2019-06-07T08:12:22.928Z,20.94
2019-06-07T08:14:26.826Z,21.21
2019-06-07T08:16:30.829Z,21.46
2019-06-07T08:18:34.728Z,21.70
2019-06-07T08:20:38.573Z,21.85
2019-06-07T08:22:42.521Z,21.92
2019-06-07T08:24:50.034Z,22.14
2019-06-07T08:27:13.054Z,22.22
2019-06-07T08:29:02.489Z,22.49
2019-06-07T08:31:07.384Z,22.64
2019-06-07T08:33:25.237Z,22.73
2019-06-07T08:36:02.393Z,22.85
2019-06-07T08:37:21.600Z,22.88
2019-06-07T08:39:25.349Z,23.03
2019-06-07T08:41:29.135Z,23.23
2019-06-07T08:43:32.944Z,23.41
2019-06-07T08:45:36.934Z,23.65
2019-06-07T08:47:40.764Z,23.78
2019-06-07T08:49:44.653Z,23.91
2019-06-07T08:51:48.600Z,23.96
2019-06-07T08:54:09.336Z,23.99
2019-06-07T08:56:05.813Z,24.01
2019-06-07T08:58:08.540Z,24.03
2019-06-07T09:00:42.595Z,24.24
2019-06-07T09:02:23.820Z,24.19
2019-06-07T09:04:22.436Z,24.30
2019-06-07T09:07:02.422Z,24.39
2019-06-07T09:08:31.883Z,24.47
2019-06-07T09:10:35.857Z,24.55
2019-06-07T09:12:39.894Z,24.61
2019-06-07T09:14:59.709Z,24.80
2019-06-07T09:16:49.484Z,24.88
2019-06-07T09:18:57.039Z,24.96
2019-06-07T09:21:01.219Z,25.03
2019-06-07T09:23:15.069Z,25.24
2019-06-07T09:25:20.714Z,25.59
2019-06-07T09:27:16.282Z,25.86
2019-06-07T09:29:20.436Z,25.94
2019-06-07T09:31:24.352Z,25.99
2019-06-07T09:33:28.135Z,26.05
2019-06-07T09:35:32.260Z,26.21
2019-06-07T09:38:04.161Z,26.33
2019-06-07T09:39:42.344Z,26.55
2019-06-07T09:41:49.863Z,26.92
2019-06-07T09:44:04.591Z,27.36
2019-06-07T09:45:58.833Z,27.59
2019-06-07T09:48:10.092Z,27.62
2019-06-07T09:50:12.007Z,27.58
2019-06-07T09:52:14.561Z,27.51
2019-06-07T09:56:24.076Z,27.53
2019-06-07T09:58:51.030Z,27.64
2019-06-07T10:00:40.949Z,27.78
2019-06-07T10:02:39.457Z,27.87
2019-06-07T10:04:43.331Z,28.03
2019-06-07T10:06:47.242Z,28.28
2019-06-07T10:10:56.679Z,28.47
2019-06-07T10:13:01.721Z,28.65
2019-06-07T10:15:07.045Z,28.71
2019-06-07T10:17:11.019Z,28.74
2019-06-07T10:19:14.941Z,28.86
2019-06-07T10:21:18.889Z,28.87
2019-06-07T10:23:22.782Z,28.83
2019-06-07T10:25:26.674Z,28.80
2019-06-07T10:27:30.627Z,28.94
2019-06-07T10:29:34.480Z,29.09
2019-06-07T10:31:38.481Z,29.28
2019-06-07T10:33:42.428Z,29.21
2019-06-07T10:35:46.272Z,29.30
2019-06-07T10:37:50.083Z,29.52
2019-06-07T10:39:54.107Z,29.50
2019-06-07T10:41:58.096Z,29.45
2019-06-07T10:44:03.225Z,29.52
2019-06-07T10:46:07.634Z,29.53
2019-06-07T10:48:11.829Z,29.62
2019-06-07T10:50:16.204Z,29.73
2019-06-07T10:52:20.065Z,29.63
2019-06-07T10:54:28.170Z,29.54
2019-06-07T10:56:29.520Z,29.54
2019-06-07T10:58:34.331Z,29.68
2019-06-07T11:00:38.346Z,30.04
2019-06-07T11:02:42.293Z,30.15
2019-06-07T11:04:46.207Z,30.31
2019-06-07T11:06:50.141Z,30.48
2019-06-07T11:08:54.008Z,30.46
2019-06-07T11:10:57.860Z,30.45
2019-06-07T11:13:01.794Z,30.55
2019-06-07T11:15:06.714Z,30.75
2019-06-07T11:17:11.330Z,31.14
2019-06-07T11:19:17.905Z,31.41
2019-06-07T11:21:21.114Z,31.45
2019-06-07T11:23:24.998Z,31.36
2019-06-07T11:25:28.895Z,31.20
2019-06-07T11:27:32.861Z,31.13
2019-06-07T11:29:36.715Z,31.07
2019-06-07T11:31:40.601Z,31.07
2019-06-07T11:33:44.618Z,31.09
2019-06-07T11:35:48.501Z,31.15
2019-06-07T11:37:52.479Z,31.24
2019-06-07T11:39:56.452Z,31.20
2019-06-07T11:42:00.329Z,31.16
2019-06-07T11:44:04.663Z,31.16
2019-06-07T11:46:08.847Z,31.21
2019-06-07T11:48:13.469Z,31.19
2019-06-07T11:50:17.681Z,31.25
2019-06-07T11:52:21.479Z,31.14
2019-06-07T11:54:25.433Z,30.99
2019-06-07T11:56:29.818Z,30.90
2019-06-07T11:58:33.646Z,30.93
2019-06-07T12:00:37.594Z,30.75
2019-06-07T12:02:41.521Z,30.60
2019-06-07T12:04:45.271Z,30.61
2019-06-07T12:06:49.150Z,30.60
2019-06-07T12:08:52.947Z,30.74
2019-06-07T12:10:56.844Z,30.89
2019-06-07T12:13:00.757Z,30.93
2019-06-07T12:15:05.908Z,31.07
2019-06-07T12:17:11.172Z,31.02
2019-06-07T12:19:15.564Z,30.74
2019-06-07T12:21:19.914Z,30.70
2019-06-07T12:23:23.953Z,30.85
2019-06-07T12:25:27.920Z,31.03
2019-06-07T12:27:31.780Z,31.22
2019-06-07T12:29:35.647Z,31.31
2019-06-07T12:31:39.588Z,31.42
2019-06-07T12:33:43.508Z,31.67
2019-06-07T12:35:47.369Z,31.87
2019-06-07T12:37:51.268Z,32.06
2019-06-07T12:39:55.212Z,32.23
2019-06-07T12:41:59.185Z,32.36
2019-06-07T12:44:03.230Z,32.43
2019-06-07T12:46:07.109Z,32.69
2019-06-07T12:48:11.072Z,32.99
2019-06-07T12:50:15.550Z,33.34
2019-06-07T12:52:21.032Z,33.73
2019-06-07T12:54:25.082Z,34.24
2019-06-07T12:56:28.884Z,34.67
2019-06-07T12:58:36.119Z,35.03
2019-06-07T13:00:38.495Z,35.47
2019-06-07T13:02:42.502Z,35.83
2019-06-07T13:04:46.604Z,36.18
2019-06-07T13:06:50.432Z,36.59
2019-06-07T13:08:54.354Z,36.96
2019-06-07T13:11:14.270Z,36.92
2019-06-07T13:13:03.978Z,36.57
2019-06-07T13:15:08.088Z,36.27
2019-06-07T13:17:12.034Z,35.75
2019-06-07T13:19:16.402Z,34.79
2019-06-07T13:21:20.353Z,33.87
2019-06-07T13:23:24.431Z,33.10
2019-06-07T13:25:44.116Z,32.59
2019-06-07T13:27:34.133Z,32.24
2019-06-07T13:29:37.904Z,31.86
2019-06-07T13:31:41.818Z,31.60
2019-06-07T13:33:45.721Z,31.51
2019-06-07T13:35:49.650Z,31.34
2019-06-07T13:37:53.590Z,31.13
2019-06-07T13:39:57.440Z,30.92
2019-06-07T13:42:01.330Z,30.80
2019-06-07T13:44:05.301Z,30.73
2019-06-07T13:46:12.891Z,30.57
2019-06-07T13:48:14.681Z,30.42
2019-06-07T13:50:19.594Z,30.28
2019-06-07T13:52:23.496Z,30.22
2019-06-07T13:54:27.825Z,30.14
2019-06-07T13:56:31.868Z,30.09
2019-06-07T13:58:35.728Z,29.94
2019-06-07T14:00:39.544Z,29.84
2019-06-07T14:02:43.461Z,29.75
2019-06-07T14:04:47.330Z,29.67
2019-06-07T14:06:51.073Z,29.57
2019-06-07T14:08:54.936Z,29.52
2019-06-07T14:10:58.841Z,29.52
2019-06-07T14:13:03.075Z,29.48
2019-06-07T14:15:07.988Z,29.46
2019-06-07T14:17:11.770Z,29.49
2019-06-07T14:19:15.698Z,29.55
2019-06-07T14:21:20.392Z,29.61
2019-06-07T14:23:42.345Z,29.65
2019-06-07T14:25:31.321Z,29.57
2019-06-07T14:27:35.233Z,29.51
2019-06-07T14:29:39.343Z,29.49
2019-06-07T14:31:43.208Z,29.42
2019-06-07T14:33:47.145Z,29.30
2019-06-07T14:35:51.033Z,29.27
2019-06-07T14:37:54.945Z,29.22
2019-06-07T14:39:58.887Z,29.21
2019-06-07T14:42:08.956Z,29.23
2019-06-07T14:44:08.289Z,29.20
2019-06-07T14:46:12.224Z,29.08
2019-06-07T14:48:16.097Z,29.05
2019-06-07T14:50:20.466Z,29.08
2019-06-07T14:52:24.435Z,29.12
2019-06-07T14:54:32.273Z,29.17
2019-06-07T14:56:35.217Z,29.19
2019-06-07T14:58:43.283Z,29.22
2019-06-07T15:00:45.212Z,29.24
2019-06-07T15:02:48.986Z,29.22
2019-06-07T15:04:54.501Z,29.13
2019-06-07T15:06:58.296Z,29.12
2019-06-07T15:09:02.091Z,29.10
2019-06-07T15:11:06.016Z,29.09
2019-06-07T15:13:10.002Z,29.12
2019-06-07T15:15:13.878Z,29.15
2019-06-07T15:17:17.720Z,29.14
2019-06-07T15:19:23.999Z,29.13
2019-06-07T15:21:27.226Z,29.11
2019-06-07T15:23:31.193Z,29.10
2019-06-07T15:25:35.535Z,29.08
2019-06-07T15:27:39.504Z,29.07
2019-06-07T15:29:43.438Z,29.04
2019-06-07T15:31:47.313Z,29.03
2019-06-07T15:33:51.203Z,29.03
2019-06-07T15:35:55.109Z,29.07
2019-06-07T15:37:59.014Z,29.08
2019-06-07T15:40:03.056Z,29.03
2019-06-07T15:42:06.906Z,29.02
2019-06-07T15:44:10.802Z,29.04
2019-06-07T15:46:14.622Z,29.02
2019-06-07T15:48:18.540Z,29.02
2019-06-07T15:50:22.576Z,29.01
2019-06-07T15:52:26.414Z,28.99
2019-06-07T15:54:30.380Z,28.95
2019-06-07T15:56:34.673Z,28.91
2019-06-07T15:58:39.403Z,28.87
2019-06-07T16:00:43.401Z,28.87
2019-06-07T16:02:47.287Z,28.86
2019-06-07T16:04:51.192Z,28.87
2019-06-07T16:06:55.113Z,28.87
2019-06-07T16:08:59.042Z,28.87
2019-06-07T16:11:02.965Z,28.84
2019-06-07T16:13:06.823Z,28.79
2019-06-07T16:15:13.469Z,28.73
2019-06-07T16:17:18.410Z,28.72
2019-06-07T16:19:22.232Z,28.69
2019-06-07T16:21:26.126Z,28.68
2019-06-07T16:23:30.049Z,28.66
2019-06-07T16:25:34.036Z,28.66
2019-06-07T16:27:38.661Z,28.65
2019-06-07T16:29:43.017Z,28.62
2019-06-07T16:31:46.883Z,28.60
2019-06-07T16:33:50.850Z,28.58
2019-06-07T16:35:54.675Z,28.57
2019-06-07T16:37:58.586Z,28.56
2019-06-07T16:40:02.553Z,28.53
2019-06-07T16:42:06.553Z,28.52
2019-06-07T16:44:10.301Z,28.50
2019-06-07T16:46:14.308Z,28.49
2019-06-07T16:48:18.110Z,28.47
2019-06-07T16:50:22.154Z,28.46
2019-06-07T16:52:25.929Z,28.47
2019-06-07T16:54:29.901Z,28.46
2019-06-07T16:56:33.786Z,28.45
2019-06-07T16:58:37.942Z,28.44
2019-06-07T17:00:42.237Z,28.43
2019-06-07T17:02:47.430Z,28.41
2019-06-07T17:04:52.027Z,28.38
2019-06-07T17:06:55.927Z,28.36
2019-06-07T17:08:59.693Z,28.34
2019-06-07T17:11:03.589Z,28.33
2019-06-07T17:13:07.488Z,28.32
2019-06-07T17:15:12.184Z,28.32
2019-06-07T17:17:16.050Z,28.29
2019-06-07T17:19:20.018Z,28.26
2019-06-07T17:21:23.856Z,28.24
2019-06-07T17:23:27.931Z,28.24
2019-06-07T17:25:31.950Z,28.23
2019-06-07T17:27:35.893Z,28.21
2019-06-07T17:29:39.819Z,28.19
2019-06-07T17:31:44.761Z,28.17
2019-06-07T17:33:50.059Z,28.16
2019-06-07T17:35:54.133Z,28.15
2019-06-07T17:37:58.114Z,28.14
2019-06-07T17:40:01.938Z,28.13
2019-06-07T17:42:05.910Z,28.12
2019-06-07T17:44:09.774Z,28.11
2019-06-07T17:46:13.751Z,28.10
2019-06-07T17:48:17.803Z,28.07
2019-06-07T17:50:22.442Z,28.07
2019-06-07T17:52:28.178Z,28.05
2019-06-07T17:54:32.067Z,27.99
2019-06-07T17:56:36.029Z,27.96
2019-06-07T17:58:39.900Z,27.96
2019-06-07T18:00:49.329Z,27.94
2019-06-07T18:02:53.209Z,27.89
2019-06-07T18:04:57.099Z,27.88
2019-06-07T18:07:01.262Z,27.85
2019-06-07T18:09:07.218Z,27.82
2019-06-07T18:11:11.271Z,27.78
2019-06-07T18:13:15.370Z,27.72
2019-06-07T18:15:22.658Z,27.68
2019-06-07T18:17:34.521Z,27.67
2019-06-07T18:19:32.089Z,27.64
2019-06-07T18:21:35.913Z,27.58
2019-06-07T18:23:39.936Z,27.52
2019-06-07T18:25:43.810Z,27.49
2019-06-07T18:27:48.510Z,27.47
2019-06-07T18:29:52.731Z,27.45
2019-06-07T18:31:56.688Z,27.45
2019-06-07T18:34:00.648Z,27.43
2019-06-07T18:36:04.915Z,27.41
2019-06-07T18:38:10.940Z,27.40
2019-06-07T18:40:14.417Z,27.40
2019-06-07T18:42:18.314Z,27.39
2019-06-07T18:44:22.163Z,27.37
2019-06-07T18:46:26.046Z,27.34
2019-06-07T18:48:30.052Z,27.33
2019-06-07T18:50:33.924Z,27.31
2019-06-07T18:52:39.066Z,27.30
2019-06-07T18:54:43.106Z,27.27
2019-06-07T18:56:47.107Z,27.26
2019-06-07T18:58:51.097Z,27.26
2019-06-07T19:00:55.539Z,27.24
2019-06-07T19:02:59.342Z,27.22
2019-06-07T19:05:03.428Z,27.19
2019-06-07T19:07:07.355Z,27.15
2019-06-07T19:09:11.273Z,27.10
2019-06-07T19:11:15.172Z,27.05
2019-06-07T19:13:19.105Z,26.99
2019-06-07T19:15:24.408Z,26.90
2019-06-07T19:17:28.340Z,26.86
2019-06-07T19:19:32.220Z,26.86
2019-06-07T19:21:36.146Z,26.88
2019-06-07T19:23:40.039Z,26.88
2019-06-07T19:25:43.946Z,26.88
2019-06-07T19:27:47.907Z,26.90
2019-06-07T19:29:52.741Z,26.91
2019-06-07T19:31:57.033Z,26.91
2019-06-07T19:34:01.370Z,26.92
2019-06-07T19:36:05.367Z,26.93
2019-06-07T19:38:10.045Z,26.94
2019-06-07T19:40:14.776Z,26.90
2019-06-07T19:42:18.664Z,26.82
2019-06-07T19:44:22.637Z,26.68
2019-06-07T19:46:26.452Z,26.49
2019-06-07T19:48:30.390Z,26.35
2019-06-07T19:50:34.649Z,26.22
2019-06-07T19:52:38.667Z,26.06
2019-06-07T19:54:42.774Z,25.94
2019-06-07T19:56:46.610Z,25.78
2019-06-07T19:58:50.583Z,25.62
2019-06-07T20:00:55.531Z,25.47
2019-06-07T20:02:59.924Z,25.08
2019-06-07T20:05:06.792Z,24.72
2019-06-07T20:07:09.667Z,24.37
2019-06-07T20:09:13.494Z,24.12
2019-06-07T20:11:17.386Z,23.88
2019-06-07T20:13:21.307Z,23.64
2019-06-07T20:15:29.187Z,23.34
2019-06-07T20:17:30.739Z,23.12
2019-06-07T20:19:34.680Z,22.96
2019-06-07T20:21:38.576Z,22.85
2019-06-07T20:23:42.501Z,22.73
2019-06-07T20:25:46.460Z,22.60
2019-06-07T20:27:50.275Z,22.40
2019-06-07T20:29:54.172Z,22.22
2019-06-07T20:31:58.287Z,22.15
2019-06-07T20:34:04.205Z,22.08
2019-06-07T20:36:08.986Z,21.99
2019-06-07T20:38:13.144Z,21.87
2019-06-07T20:40:24.111Z,21.80
2019-06-07T20:42:22.967Z,21.75
2019-06-07T20:44:26.871Z,21.60
2019-06-07T20:46:30.748Z,21.49
2019-06-07T20:48:35.120Z,21.43
2019-06-07T20:50:39.072Z,21.41
2019-06-07T20:52:42.884Z,21.37
2019-06-07T20:54:46.835Z,21.25
2019-06-07T20:56:50.823Z,21.19
2019-06-07T20:58:54.615Z,21.14
2019-06-07T21:00:58.642Z,21.12
2019-06-07T21:03:03.288Z,21.10
2019-06-07T21:05:07.795Z,21.05
2019-06-07T21:07:11.647Z,20.96
2019-06-07T21:09:15.620Z,20.92
2019-06-07T21:11:19.413Z,20.88
2019-06-07T21:13:23.415Z,20.80
2019-06-07T21:15:27.340Z,20.69
2019-06-07T21:17:31.342Z,20.63
2019-06-07T21:19:35.344Z,20.63
2019-06-07T21:21:39.147Z,20.67
2019-06-07T21:23:43.128Z,20.71
2019-06-07T21:25:47.377Z,20.71
2019-06-07T21:27:51.299Z,20.71
2019-06-07T21:29:55.210Z,20.68
2019-06-07T21:31:59.109Z,20.65
2019-06-07T21:34:03.749Z,20.68
2019-06-07T21:36:11.863Z,20.65
2019-06-07T21:38:15.785Z,20.65
2019-06-07T21:40:19.998Z,20.67
2019-06-07T21:42:24.439Z,20.65
2019-06-07T21:44:28.250Z,20.64
2019-06-07T21:46:32.159Z,20.60
2019-06-07T21:48:36.053Z,20.58
2019-06-07T21:50:39.952Z,20.55
2019-06-07T21:52:43.843Z,20.45
2019-06-07T21:54:47.778Z,20.31
2019-06-07T21:56:51.647Z,20.19
2019-06-07T21:58:55.551Z,20.04
2019-06-07T22:01:16.288Z,20.04
2019-06-07T22:03:20.228Z,19.98
2019-06-07T22:05:24.079Z,19.87
2019-06-07T22:07:27.982Z,19.87
2019-06-07T22:09:31.887Z,19.89
2019-06-07T22:11:35.671Z,19.89
2019-06-07T22:13:39.494Z,19.85
2019-06-07T22:15:44.459Z,19.65
2019-06-07T22:17:48.334Z,19.65
2019-06-07T22:19:52.231Z,19.69
2019-06-07T22:22:02.672Z,19.59
2019-06-07T22:24:01.677Z,19.50
2019-06-07T22:26:06.993Z,19.34
2019-06-07T22:28:12.536Z,19.17
2019-06-07T22:30:16.826Z,19.07
2019-06-07T22:32:20.763Z,18.89
2019-06-07T22:34:24.704Z,18.75
2019-06-07T22:36:28.602Z,18.66
2019-06-07T22:38:32.599Z,18.56
2019-06-07T22:40:36.469Z,18.51
2019-06-07T22:42:40.356Z,18.43
2019-06-07T22:44:44.200Z,18.31
2019-06-07T22:46:48.191Z,18.25
2019-06-07T22:48:52.080Z,18.21
2019-06-07T22:50:57.026Z,18.20
2019-06-07T22:53:00.849Z,18.22
2019-06-07T22:55:05.204Z,18.25
2019-06-07T22:57:16.645Z,18.22
2019-06-07T22:59:20.725Z,18.19
2019-06-07T23:01:24.537Z,18.22
2019-06-07T23:03:28.359Z,18.24
2019-06-07T23:05:32.275Z,18.02
2019-06-07T23:07:36.163Z,17.70
2019-06-07T23:09:40.092Z,17.43
2019-06-07T23:11:44.039Z,17.22
2019-06-07T23:13:47.854Z,17.16
2019-06-07T23:15:51.785Z,17.20
2019-06-07T23:17:55.826Z,17.19
2019-06-07T23:20:01.862Z,17.19
2019-06-07T23:22:05.836Z,17.12
2019-06-07T23:24:09.834Z,16.99
2019-06-07T23:26:14.153Z,16.91
2019-06-07T23:28:18.770Z,16.88
2019-06-07T23:30:24.114Z,16.95
2019-06-07T23:32:28.037Z,16.99
2019-06-07T23:34:31.831Z,16.95
2019-06-07T23:36:35.883Z,16.88
2019-06-07T23:38:39.658Z,16.83
2019-06-07T23:40:43.691Z,16.84
2019-06-07T23:42:48.675Z,16.76
2019-06-07T23:44:52.581Z,16.71
2019-06-07T23:47:10.408Z,16.63
2019-06-07T23:49:02.047Z,16.58
2019-06-07T23:51:06.020Z,16.60
2019-06-07T23:53:09.907Z,16.50
2019-06-07T23:55:13.951Z,16.50
2019-06-07T23:57:19.201Z,16.49
2019-06-07T23:59:23.421Z,16.57
